EGKK/LGW METAR and TAF weather

Enter ICAO airport designator
Station Type Date Time Source
EGKK METAR 2019/02/23 17:20 UTC NOAA

EGKK 231720Z 18004KT CAVOK 12/05 Q1033


Station Type Date Time Source
EGKK Decoded METAR 2019/02/23 17:20 UTC NOAA

London / Gatwick Airport, United Kingdom (EGKK) 51-09N 000-11W 0M
Feb 23, 2019 - 12:20 PM EST / 2019.02.23 1720 UTC
Wind: from the S (180 degrees) at 5 MPH (4 KT):0
Visibility: greater than 7 mile(s):0
Temperature: 53 F (12 C)
Dew Point: 41 F (5 C)
Relative Humidity: 62%
Pressure (altimeter): 30.50 in. Hg (1033 hPa)
ob: EGKK 231720Z 18004KT CAVOK 12/05 Q1033
cycle: 17

Station Type Date Time Source
EGKK TAF 2019/02/23 18:07 UTC NOAA

TAF EGKK 231659Z 2318/2424 14005KT CAVOK
BECMG 2320/2323 8000
TEMPO 2323/2409 2000 BR PROB30 2403/2409 0300 FG VV///
BECMG 2409/2411 9999 PROB40 2418/2424 7000


Example: see airport list